Time;durP1;ratioP1;P1;durP2;ratioP2;P2;SDS_P1;SDS_P2;PMS_P1;PMS_P2;Temp;Humidity;BMP_temperature;BMP_pressure;BME280_temperature;BME280_humidity;BME280_pressure;Samples;Min_cycle;Max_cycle;Signal;HPM_P1;HPM_P2
2023/07/23 00:00:47;;;;;;;843.03;593.15;;;;;;;;;;5026914;28;20434;-62
2023/07/23 00:03:16;;;;;;;845.72;598.83;;;;;;;;;;5017422;28;20546;-63
2023/07/23 00:05:47;;;;;;;848.72;604.42;;;;;;;;;;5025665;28;20909;-62
2023/07/23 00:08:14;;;;;;;843.87;597.37;;;;;;;;;;5025118;28;20921;-62
2023/07/23 00:10:41;;;;;;;840.75;598.28;;;;;;;;;;5024398;28;20913;-62
2023/07/23 00:13:08;;;;;;;843.40;594.90;;;;;;;;;;5025414;28;20442;-62
2023/07/23 00:15:35;;;;;;;825.78;560.53;;;;;;;;;;5026323;28;20474;-62
2023/07/23 00:18:03;;;;;;;823.80;552.20;;;;;;;;;;5019238;28;20533;-62
2023/07/23 00:20:30;;;;;;;823.22;551.83;;;;;;;;;;5030655;28;20441;-63
2023/07/23 00:22:57;;;;;;;820.10;551.15;;;;;;;;;;5025214;28;20434;-63
2023/07/23 00:25:25;;;;;;;823.92;554.13;;;;;;;;;;5022094;28;20924;-62
2023/07/23 00:27:52;;;;;;;822.67;545.07;;;;;;;;;;5020900;28;20477;-62
2023/07/23 00:30:19;;;;;;;813.38;542.45;;;;;;;;;;5022654;28;20585;-62
2023/07/23 00:32:46;;;;;;;819.22;547.70;;;;;;;;;;5020759;28;20428;-63
2023/07/23 00:35:14;;;;;;;827.95;563.92;;;;;;;;;;5017761;28;20451;-62
2023/07/23 00:37:41;;;;;;;820.43;543.20;;;;;;;;;;5025197;28;20927;-63
2023/07/23 00:40:09;;;;;;;818.47;544.28;;;;;;;;;;5022599;28;20447;-63
2023/07/23 00:42:41;;;;;;;815.47;550.28;;;;;;;;;;5021912;28;20438;-62
2023/07/23 00:45:08;;;;;;;818.85;545.28;;;;;;;;;;5022894;28;20457;-63
2023/07/23 00:47:36;;;;;;;810.17;528.55;;;;;;;;;;5017179;28;20501;-62
2023/07/23 00:50:04;;;;;;;814.92;549.08;;;;;;;;;;5024724;28;20449;-63
2023/07/23 00:52:31;;;;;;;810.33;534.93;;;;;;;;;;5023354;28;21008;-62
2023/07/23 00:54:58;;;;;;;811.15;541.35;;;;;;;;;;5019185;28;20439;-63
2023/07/23 00:57:25;;;;;;;812.15;543.67;;;;;;;;;;5016324;28;20494;-63
2023/07/23 00:59:53;;;;;;;815.28;542.33;;;;;;;;;;5023719;28;20606;-63
2023/07/23 01:02:21;;;;;;;809.92;539.90;;;;;;;;;;5021043;28;20435;-63
2023/07/23 01:04:50;;;;;;;808.47;532.60;;;;;;;;;;5019424;28;20425;-62
2023/07/23 01:07:18;;;;;;;817.63;541.92;;;;;;;;;;5018208;28;20517;-63
2023/07/23 01:09:47;;;;;;;810.85;547.92;;;;;;;;;;5009986;28;20469;-63
2023/07/23 01:12:17;;;;;;;805.42;536.90;;;;;;;;;;5023360;28;20515;-62
2023/07/23 01:14:45;;;;;;;806.25;543.20;;;;;;;;;;5016410;28;20858;-62
2023/07/23 01:17:13;;;;;;;806.10;546.72;;;;;;;;;;5025626;28;20773;-62
2023/07/23 01:19:40;;;;;;;802.07;537.87;;;;;;;;;;5026725;28;20423;-62
2023/07/23 01:22:07;;;;;;;802.97;539.47;;;;;;;;;;5019702;28;20431;-63
2023/07/23 01:24:35;;;;;;;807.28;551.10;;;;;;;;;;5021729;28;20455;-62
2023/07/23 01:27:05;;;;;;;803.22;540.65;;;;;;;;;;5023685;28;20441;-63
2023/07/23 01:29:32;;;;;;;802.25;541.97;;;;;;;;;;5024510;28;20842;-63
2023/07/23 01:31:59;;;;;;;803.95;540.38;;;;;;;;;;5024991;28;20478;-63
2023/07/23 01:34:27;;;;;;;800.15;532.88;;;;;;;;;;5021149;28;20443;-63
2023/07/23 01:36:55;;;;;;;801.67;530.17;;;;;;;;;;5030183;28;20526;-63
2023/07/23 01:39:22;;;;;;;807.70;546.58;;;;;;;;;;5019989;28;20432;-63
2023/07/23 01:41:49;;;;;;;801.90;536.73;;;;;;;;;;5020522;28;20488;-62
2023/07/23 01:44:17;;;;;;;801.25;533.17;;;;;;;;;;5020505;28;20442;-63
2023/07/23 01:46:44;;;;;;;806.38;541.30;;;;;;;;;;5017007;28;20490;-62
2023/07/23 01:49:11;;;;;;;804.45;542.00;;;;;;;;;;5006738;28;20433;-63
2023/07/23 01:51:38;;;;;;;800.83;524.92;;;;;;;;;;5021238;28;20428;-63
2023/07/23 01:54:06;;;;;;;804.40;528.40;;;;;;;;;;5019700;28;20438;-62
2023/07/23 01:56:33;;;;;;;806.63;537.38;;;;;;;;;;5023918;28;20512;-63
2023/07/23 01:59:01;;;;;;;804.20;529.30;;;;;;;;;;5019647;28;20431;-63
2023/07/23 02:01:29;;;;;;;803.05;527.55;;;;;;;;;;5022382;28;20436;-63
2023/07/23 02:04:00;;;;;;;803.17;531.35;;;;;;;;;;5023976;28;20434;-62
2023/07/23 02:06:27;;;;;;;801.95;526.63;;;;;;;;;;5022959;28;20443;-63
2023/07/23 02:08:54;;;;;;;801.00;519.08;;;;;;;;;;5023340;28;20454;-63
2023/07/23 02:11:27;;;;;;;798.50;518.10;;;;;;;;;;5017517;28;20426;-63
2023/07/23 02:13:54;;;;;;;797.53;518.10;;;;;;;;;;5020966;28;20451;-63
2023/07/23 02:16:22;;;;;;;799.35;523.10;;;;;;;;;;5024087;28;21101;-62
2023/07/23 02:18:49;;;;;;;800.30;523.40;;;;;;;;;;5013267;28;20418;-62
2023/07/23 02:21:19;;;;;;;799.30;521.30;;;;;;;;;;5024226;28;20513;-63
2023/07/23 02:23:46;;;;;;;799.67;529.22;;;;;;;;;;5019572;28;20432;-63
2023/07/23 02:26:13;;;;;;;796.45;522.83;;;;;;;;;;5016316;28;20508;-63
2023/07/23 02:28:43;;;;;;;793.53;511.98;;;;;;;;;;5023199;28;20895;-63
2023/07/23 02:31:11;;;;;;;794.97;516.28;;;;;;;;;;5021725;28;20478;-63
2023/07/23 02:33:39;;;;;;;793.90;511.40;;;;;;;;;;5022655;28;20451;-63
2023/07/23 02:36:06;;;;;;;796.45;535.22;;;;;;;;;;5023600;28;20422;-63
2023/07/23 02:38:33;;;;;;;795.38;530.95;;;;;;;;;;5022425;28;20566;-63
2023/07/23 02:41:03;;;;;;;797.55;529.72;;;;;;;;;;5018331;28;20468;-63
2023/07/23 02:43:33;;;;;;;796.63;537.42;;;;;;;;;;5018856;28;20533;-63
2023/07/23 02:46:00;;;;;;;789.65;521.67;;;;;;;;;;5019456;28;20509;-63
2023/07/23 02:48:27;;;;;;;790.67;518.67;;;;;;;;;;5012512;28;20513;-63
2023/07/23 02:50:57;;;;;;;793.17;528.72;;;;;;;;;;5021935;28;20430;-62
2023/07/23 02:53:26;;;;;;;790.65;521.08;;;;;;;;;;5021350;28;20438;-63
2023/07/23 02:55:54;;;;;;;789.35;512.90;;;;;;;;;;5021854;28;20435;-63
2023/07/23 02:58:21;;;;;;;790.65;511.65;;;;;;;;;;5001475;28;20429;-63
2023/07/23 03:00:51;;;;;;;787.63;495.30;;;;;;;;;;5023855;28;20956;-63
2023/07/23 03:03:20;;;;;;;789.72;506.40;;;;;;;;;;5021480;28;20427;-63
2023/07/23 03:05:47;;;;;;;794.83;510.52;;;;;;;;;;5019426;28;20941;-63
2023/07/23 03:08:15;;;;;;;784.55;493.13;;;;;;;;;;5022027;28;20430;-63
2023/07/23 03:10:42;;;;;;;790.67;512.20;;;;;;;;;;5027746;28;20961;-63
2023/07/23 03:13:09;;;;;;;792.10;520.72;;;;;;;;;;5024550;28;20430;-63
2023/07/23 03:15:39;;;;;;;792.77;521.67;;;;;;;;;;5024597;28;20497;-63
2023/07/23 03:18:07;;;;;;;789.47;518.45;;;;;;;;;;5028265;28;20966;-63
2023/07/23 03:20:34;;;;;;;791.92;518.70;;;;;;;;;;5025867;28;20426;-63
2023/07/23 03:23:01;;;;;;;792.27;525.93;;;;;;;;;;5016563;28;20781;-63
2023/07/23 03:25:28;;;;;;;788.65;503.73;;;;;;;;;;5023633;28;20492;-63
2023/07/23 03:27:59;;;;;;;788.75;509.27;;;;;;;;;;5021023;28;20522;-63
2023/07/23 03:30:30;;;;;;;794.80;514.80;;;;;;;;;;5025680;28;20427;-63
2023/07/23 03:32:57;;;;;;;785.30;490.25;;;;;;;;;;5026955;28;20491;-63
2023/07/23 03:35:24;;;;;;;790.75;498.05;;;;;;;;;;5026110;28;20511;-63
2023/07/23 03:37:51;;;;;;;791.10;493.43;;;;;;;;;;5023962;28;20495;-63
2023/07/23 03:40:18;;;;;;;794.22;505.58;;;;;;;;;;5026388;28;20451;-63
2023/07/23 03:42:46;;;;;;;796.13;502.67;;;;;;;;;;5023317;28;20491;-63
2023/07/23 03:45:13;;;;;;;800.78;506.13;;;;;;;;;;5008568;28;20853;-63
2023/07/23 03:47:42;;;;;;;790.08;504.75;;;;;;;;;;5025403;28;20553;-63
2023/07/23 03:50:13;;;;;;;786.70;506.52;;;;;;;;;;5023331;28;20534;-63
2023/07/23 03:52:42;;;;;;;794.65;500.05;;;;;;;;;;5024375;28;20801;-63
2023/07/23 03:55:09;;;;;;;791.05;506.92;;;;;;;;;;5031523;28;20777;-63
2023/07/23 03:57:36;;;;;;;789.05;504.95;;;;;;;;;;5024846;28;20453;-63
2023/07/23 04:00:05;;;;;;;797.13;509.63;;;;;;;;;;5023816;28;20570;-63
2023/07/23 04:02:35;;;;;;;799.67;505.83;;;;;;;;;;5022771;28;20517;-63
2023/07/23 04:05:03;;;;;;;800.85;509.75;;;;;;;;;;5024250;28;20458;-63
2023/07/23 04:07:30;;;;;;;806.23;512.30;;;;;;;;;;5019234;28;20506;-63
2023/07/23 04:09:57;;;;;;;810.92;510.65;;;;;;;;;;5021211;28;20514;-63
2023/07/23 04:12:25;;;;;;;814.88;510.45;;;;;;;;;;5020297;28;20439;-63
2023/07/23 04:14:52;;;;;;;793.93;523.47;;;;;;;;;;5025161;28;20510;-63
2023/07/23 04:17:19;;;;;;;789.88;514.75;;;;;;;;;;5024600;28;20477;-63
2023/07/23 04:19:49;;;;;;;793.65;527.58;;;;;;;;;;5020416;28;20427;-63
2023/07/23 04:22:17;;;;;;;795.38;520.03;;;;;;;;;;5023668;28;20445;-63
2023/07/23 04:24:44;;;;;;;794.85;523.42;;;;;;;;;;5025639;28;20502;-63
2023/07/23 04:27:11;;;;;;;794.40;522.60;;;;;;;;;;5013761;28;20431;-63
2023/07/23 04:29:38;;;;;;;793.40;516.67;;;;;;;;;;5023248;28;20418;-63
2023/07/23 04:32:08;;;;;;;792.20;511.70;;;;;;;;;;5025864;28;20435;-63
2023/07/23 04:34:35;;;;;;;806.67;518.00;;;;;;;;;;5007874;28;20884;-63
2023/07/23 04:37:03;;;;;;;800.78;511.38;;;;;;;;;;5009693;28;21126;-63
2023/07/23 04:39:30;;;;;;;798.40;506.63;;;;;;;;;;5023507;28;20495;-63
2023/07/23 04:41:57;;;;;;;803.33;522.67;;;;;;;;;;5022942;28;20431;-63
2023/07/23 04:44:24;;;;;;;807.83;523.85;;;;;;;;;;5024928;28;21064;-63
2023/07/23 04:46:54;;;;;;;803.33;550.85;;;;;;;;;;5025095;28;20465;-63
2023/07/23 04:49:22;;;;;;;844.45;551.80;;;;;;;;;;5020875;28;21201;-64
2023/07/23 04:51:49;;;;;;;821.53;533.22;;;;;;;;;;5022938;28;20434;-63
2023/07/23 04:54:16;;;;;;;832.78;568.03;;;;;;;;;;5022969;28;20511;-63
2023/07/23 04:56:43;;;;;;;848.67;592.35;;;;;;;;;;5022236;28;20448;-63
2023/07/23 04:59:13;;;;;;;849.83;590.17;;;;;;;;;;5023700;28;20936;-64
2023/07/23 05:01:41;;;;;;;861.55;610.00;;;;;;;;;;5022158;28;20444;-63
2023/07/23 05:04:10;;;;;;;868.58;620.35;;;;;;;;;;5024306;28;20430;-63
2023/07/23 05:06:37;;;;;;;880.47;628.75;;;;;;;;;;5023371;28;20507;-63
2023/07/23 05:09:04;;;;;;;893.92;637.35;;;;;;;;;;5016502;28;20443;-63
2023/07/23 05:11:31;;;;;;;854.63;625.57;;;;;;;;;;5025129;28;20442;-63
2023/07/23 05:13:59;;;;;;;852.25;631.42;;;;;;;;;;5020293;28;20868;-63
2023/07/23 05:16:26;;;;;;;844.87;629.53;;;;;;;;;;5024286;28;20469;-63
2023/07/23 05:18:53;;;;;;;848.60;621.22;;;;;;;;;;5021666;28;20435;-63
2023/07/23 05:21:20;;;;;;;848.22;630.33;;;;;;;;;;5028890;28;20514;-63
2023/07/23 05:23:47;;;;;;;851.80;638.30;;;;;;;;;;5024425;28;20434;-63
2023/07/23 05:26:17;;;;;;;846.45;632.30;;;;;;;;;;5006577;28;20431;-63
2023/07/23 05:28:47;;;;;;;844.72;632.13;;;;;;;;;;5028069;28;20513;-63
2023/07/23 05:31:14;;;;;;;845.58;623.53;;;;;;;;;;5024780;28;20937;-63
2023/07/23 05:33:41;;;;;;;835.03;618.65;;;;;;;;;;5020827;28;20435;-63
2023/07/23 05:36:08;;;;;;;850.45;627.38;;;;;;;;;;5028272;28;20439;-63
2023/07/23 05:38:36;;;;;;;848.60;617.73;;;;;;;;;;5027081;28;20526;-63
2023/07/23 05:41:03;;;;;;;849.00;625.63;;;;;;;;;;5026094;28;20601;-63
2023/07/23 05:43:30;;;;;;;853.33;629.37;;;;;;;;;;5025750;28;20489;-63
2023/07/23 05:45:57;;;;;;;852.28;635.88;;;;;;;;;;5022450;28;20444;-63
2023/07/23 05:48:25;;;;;;;849.95;636.83;;;;;;;;;;5018085;28;20439;-63
2023/07/23 05:50:52;;;;;;;849.55;632.03;;;;;;;;;;5030432;28;20435;-63
2023/07/23 05:53:23;;;;;;;864.90;641.88;;;;;;;;;;5012600;28;20473;-63
2023/07/23 05:55:53;;;;;;;857.30;640.67;;;;;;;;;;5019564;28;20438;-63
2023/07/23 05:58:23;;;;;;;857.33;647.63;;;;;;;;;;5014429;28;20967;-63
2023/07/23 06:00:50;;;;;;;864.72;650.88;;;;;;;;;;5013274;28;20431;-63
2023/07/23 06:03:17;;;;;;;876.90;661.80;;;;;;;;;;5022190;28;20522;-63
2023/07/23 06:05:45;;;;;;;870.90;659.22;;;;;;;;;;5021859;28;20459;-63
2023/07/23 06:08:15;;;;;;;880.15;675.20;;;;;;;;;;5002409;28;20530;-63
2023/07/23 06:10:42;;;;;;;889.30;689.55;;;;;;;;;;5022528;28;20466;-63
2023/07/23 06:13:09;;;;;;;898.20;700.05;;;;;;;;;;5022813;28;20519;-63
2023/07/23 06:15:36;;;;;;;889.15;696.72;;;;;;;;;;5020766;28;20426;-63
2023/07/23 06:18:04;;;;;;;888.20;700.35;;;;;;;;;;5020571;28;20433;-62
2023/07/23 06:20:31;;;;;;;888.90;697.57;;;;;;;;;;5024794;28;20841;-63
2023/07/23 06:23:00;;;;;;;906.00;722.70;;;;;;;;;;5024212;28;20426;-62
2023/07/23 06:25:27;;;;;;;911.28;729.08;;;;;;;;;;5011676;28;20520;-62
2023/07/23 06:27:54;;;;;;;922.28;747.40;;;;;;;;;;5023759;28;20441;-62
2023/07/23 06:30:21;;;;;;;925.47;754.30;;;;;;;;;;5023382;28;20430;-62
2023/07/23 06:32:49;;;;;;;931.88;763.33;;;;;;;;;;5017713;28;20956;-62
2023/07/23 06:35:16;;;;;;;941.27;777.13;;;;;;;;;;5022660;28;20439;-63
2023/07/23 06:37:43;;;;;;;934.50;767.97;;;;;;;;;;5019667;28;20427;-62
2023/07/23 06:40:11;;;;;;;928.58;757.67;;;;;;;;;;5019571;28;20434;-63
2023/07/23 06:42:38;;;;;;;924.90;756.85;;;;;;;;;;5023298;28;20544;-63
2023/07/23 06:45:05;;;;;;;918.15;745.42;;;;;;;;;;5023869;28;20510;-63
2023/07/23 06:47:38;;;;;;;913.03;734.15;;;;;;;;;;5026983;28;20435;-64
2023/07/23 06:50:05;;;;;;;911.67;733.93;;;;;;;;;;5020888;28;20929;-63
2023/07/23 06:52:33;;;;;;;913.85;732.85;;;;;;;;;;5025997;28;20512;-62
2023/07/23 06:55:00;;;;;;;917.58;735.92;;;;;;;;;;5027476;28;21081;-63
2023/07/23 06:57:28;;;;;;;931.55;755.80;;;;;;;;;;5016581;28;20809;-63
2023/07/23 06:59:55;;;;;;;939.45;766.22;;;;;;;;;;5025699;28;20433;-62
2023/07/23 07:02:22;;;;;;;941.85;782.30;;;;;;;;;;5024489;28;20459;-62
2023/07/23 07:04:51;;;;;;;943.00;785.43;;;;;;;;;;5023734;28;20952;-63
2023/07/23 07:07:18;;;;;;;941.70;783.55;;;;;;;;;;5029109;28;20442;-63
2023/07/23 07:09:45;;;;;;;942.33;783.50;;;;;;;;;;5031103;28;20540;-63
2023/07/23 07:12:12;;;;;;;938.90;776.37;;;;;;;;;;5028888;28;20490;-62
2023/07/23 07:14:42;;;;;;;930.73;767.70;;;;;;;;;;5024859;28;20440;-62
2023/07/23 07:17:09;;;;;;;937.40;778.40;;;;;;;;;;5036725;28;20434;-62
2023/07/23 07:19:37;;;;;;;936.43;773.87;;;;;;;;;;5025431;28;20504;-60
2023/07/23 07:22:09;;;;;;;936.80;771.22;;;;;;;;;;5026086;28;20462;-60
2023/07/23 07:24:37;;;;;;;937.25;768.03;;;;;;;;;;5023226;28;20430;-60
2023/07/23 07:27:09;;;;;;;929.72;759.53;;;;;;;;;;5027989;28;20457;-59
2023/07/23 07:29:40;;;;;;;931.80;762.25;;;;;;;;;;5019820;28;20433;-60
2023/07/23 07:32:08;;;;;;;924.03;744.90;;;;;;;;;;5025930;28;20948;-60
2023/07/23 07:34:36;;;;;;;924.45;753.15;;;;;;;;;;5022846;28;20914;-59
2023/07/23 07:37:05;;;;;;;921.63;745.20;;;;;;;;;;5006973;28;20488;-59
2023/07/23 07:39:33;;;;;;;920.00;740.03;;;;;;;;;;5022019;28;20609;-62
2023/07/23 07:42:03;;;;;;;921.37;741.63;;;;;;;;;;5025583;28;20430;-61
2023/07/23 07:44:30;;;;;;;917.45;730.80;;;;;;;;;;5025465;28;20546;-59
2023/07/23 07:46:59;;;;;;;915.70;727.50;;;;;;;;;;5020332;28;20465;-60
2023/07/23 07:49:27;;;;;;;916.03;730.45;;;;;;;;;;5008901;28;20517;-60
2023/07/23 07:51:56;;;;;;;913.08;722.42;;;;;;;;;;5026772;28;20438;-60
2023/07/23 07:54:23;;;;;;;919.92;739.45;;;;;;;;;;5027858;28;20801;-61
2023/07/23 07:56:51;;;;;;;922.30;731.47;;;;;;;;;;5026352;28;21004;-61
2023/07/23 07:59:18;;;;;;;917.75;730.28;;;;;;;;;;5028276;28;20427;-60
2023/07/23 08:01:45;;;;;;;911.70;723.30;;;;;;;;;;5024281;28;20463;-61
2023/07/23 08:04:13;;;;;;;914.05;726.15;;;;;;;;;;5026423;28;20458;-59
2023/07/23 08:06:40;;;;;;;912.83;724.58;;;;;;;;;;5005893;28;20426;-59
2023/07/23 08:09:10;;;;;;;914.78;726.85;;;;;;;;;;5007235;28;20521;-60
2023/07/23 08:11:37;;;;;;;906.80;712.93;;;;;;;;;;5024182;28;20935;-60
2023/07/23 08:14:04;;;;;;;906.50;715.50;;;;;;;;;;5006329;28;20541;-61
2023/07/23 08:16:31;;;;;;;902.03;704.97;;;;;;;;;;5026077;28;20431;-61
2023/07/23 08:18:59;;;;;;;909.10;713.38;;;;;;;;;;5021580;28;20430;-59
2023/07/23 08:21:29;;;;;;;909.22;710.33;;;;;;;;;;5026260;28;20542;-59
2023/07/23 08:23:56;;;;;;;906.45;708.40;;;;;;;;;;5018807;28;20427;-58
2023/07/23 08:26:26;;;;;;;907.45;711.60;;;;;;;;;;4995414;28;20489;-59
2023/07/23 08:28:58;;;;;;;905.10;711.47;;;;;;;;;;5023923;28;20528;-59
2023/07/23 08:31:26;;;;;;;910.53;717.08;;;;;;;;;;5019775;28;20530;-59
2023/07/23 08:33:53;;;;;;;905.30;710.72;;;;;;;;;;5007171;28;20892;-59
2023/07/23 08:36:21;;;;;;;910.85;718.40;;;;;;;;;;5023998;28;20508;-59
2023/07/23 08:38:48;;;;;;;910.80;717.55;;;;;;;;;;5024073;28;20477;-59
2023/07/23 08:41:38;;;;;;;914.97;722.63;;;;;;;;;;5023464;28;20453;-59
2023/07/23 08:44:16;;;;;;;912.95;724.35;;;;;;;;;;5011171;28;20430;-58
2023/07/23 08:46:46;;;;;;;915.88;728.55;;;;;;;;;;5024474;28;20446;-60
2023/07/23 08:49:20;;;;;;;910.35;720.90;;;;;;;;;;5026301;28;20431;-59
2023/07/23 08:51:48;;;;;;;914.10;726.97;;;;;;;;;;5021728;28;20840;-59
2023/07/23 08:54:16;;;;;;;915.17;727.65;;;;;;;;;;5025029;28;20528;-59
2023/07/23 08:56:44;;;;;;;919.72;730.05;;;;;;;;;;5022876;28;20939;-60
2023/07/23 08:59:12;;;;;;;917.72;731.70;;;;;;;;;;5014178;28;21105;-60
2023/07/23 09:01:43;;;;;;;918.38;731.58;;;;;;;;;;5021455;28;20524;-60
2023/07/23 09:04:14;;;;;;;925.83;738.20;;;;;;;;;;5024048;28;20570;-60
2023/07/23 09:06:45;;;;;;;925.17;739.72;;;;;;;;;;5020273;28;21273;-63
2023/07/23 09:09:13;;;;;;;933.55;750.15;;;;;;;;;;5016080;28;20431;-63
2023/07/23 09:11:41;;;;;;;929.70;751.33;;;;;;;;;;5022903;28;20927;-63
2023/07/23 09:14:09;;;;;;;930.47;753.53;;;;;;;;;;5024152;28;20430;-62
2023/07/23 09:16:40;;;;;;;937.10;759.92;;;;;;;;;;5009446;28;20430;-62
2023/07/23 09:19:14;;;;;;;936.90;759.65;;;;;;;;;;5025230;28;20466;-62
2023/07/23 09:21:45;;;;;;;943.22;767.33;;;;;;;;;;5022539;28;20431;-62
2023/07/23 09:24:13;;;;;;;943.08;771.63;;;;;;;;;;5022181;28;20431;-62
2023/07/23 09:26:40;;;;;;;942.95;770.58;;;;;;;;;;5023771;28;20529;-62
2023/07/23 09:29:08;;;;;;;942.85;768.83;;;;;;;;;;5022543;28;20798;-62
2023/07/23 09:31:36;;;;;;;948.27;774.27;;;;;;;;;;5023229;28;20786;-62
2023/07/23 09:34:04;;;;;;;947.80;772.85;;;;;;;;;;5022587;28;20488;-62
2023/07/23 09:36:31;;;;;;;947.58;774.90;;;;;;;;;;5000524;28;20429;-62
2023/07/23 09:39:06;;;;;;;945.10;773.95;;;;;;;;;;5006646;28;20488;-63
2023/07/23 09:41:35;;;;;;;946.17;773.78;;;;;;;;;;5019201;28;21429;-63
2023/07/23 09:44:05;;;;;;;943.87;774.20;;;;;;;;;;5025201;28;21114;-63
2023/07/23 09:46:32;;;;;;;942.25;769.10;;;;;;;;;;5024642;28;20450;-63
2023/07/23 09:49:02;;;;;;;942.53;766.00;;;;;;;;;;5024127;28;20441;-63
2023/07/23 09:51:32;;;;;;;934.47;757.10;;;;;;;;;;5005265;28;20439;-62
2023/07/23 09:54:00;;;;;;;937.17;753.03;;;;;;;;;;5023328;28;20489;-63
2023/07/23 09:56:28;;;;;;;934.50;751.28;;;;;;;;;;5019009;28;20988;-62
2023/07/23 09:58:55;;;;;;;936.95;752.45;;;;;;;;;;5001702;28;20439;-63
2023/07/23 10:01:22;;;;;;;936.55;752.47;;;;;;;;;;5022790;28;20517;-62
2023/07/23 10:03:50;;;;;;;938.30;752.35;;;;;;;;;;5023903;28;20466;-63
2023/07/23 10:06:22;;;;;;;930.60;743.40;;;;;;;;;;5023574;28;20504;-63
2023/07/23 10:08:49;;;;;;;934.95;748.53;;;;;;;;;;5022460;28;20434;-62
2023/07/23 10:11:18;;;;;;;936.93;749.47;;;;;;;;;;5020293;28;20448;-62
2023/07/23 10:13:47;;;;;;;939.28;755.40;;;;;;;;;;5023470;28;20530;-63
2023/07/23 10:16:26;;;;;;;939.60;753.15;;;;;;;;;;5006170;28;20525;-62
2023/07/23 10:18:55;;;;;;;944.33;760.42;;;;;;;;;;5023866;28;20551;-63
2023/07/23 10:21:22;;;;;;;947.85;767.78;;;;;;;;;;5025903;28;20864;-63
2023/07/23 10:23:55;;;;;;;963.55;777.22;;;;;;;;;;5026131;28;22404;-63
2023/07/23 10:26:23;;;;;;;969.80;796.90;;;;;;;;;;5023036;28;21006;-63
2023/07/23 10:28:55;;;;;;;963.58;799.50;;;;;;;;;;5024786;28;20518;-63
2023/07/23 10:31:24;;;;;;;975.53;812.70;;;;;;;;;;5016445;28;20427;-63
2023/07/23 10:33:51;;;;;;;980.05;826.83;;;;;;;;;;5024147;28;20561;-63
2023/07/23 10:36:21;;;;;;;988.70;844.97;;;;;;;;;;5025122;28;20437;-62
2023/07/23 10:39:08;;;;;;;982.22;839.60;;;;;;;;;;5007543;28;20463;-62
2023/07/23 10:41:49;;;;;;;986.45;843.50;;;;;;;;;;5019996;28;20434;-62
2023/07/23 10:44:23;;;;;;;991.03;849.88;;;;;;;;;;5022684;28;20481;-63
2023/07/23 10:46:51;;;;;;;994.08;853.05;;;;;;;;;;5007960;28;20439;-64
2023/07/23 10:49:27;;;;;;;994.97;855.80;;;;;;;;;;5025448;28;20976;-63
2023/07/23 10:51:55;;;;;;;1004.33;875.00;;;;;;;;;;5024539;28;20446;-62
2023/07/23 10:54:22;;;;;;;1023.67;897.50;;;;;;;;;;5018893;28;20527;-64
2023/07/23 10:56:50;;;;;;;1025.57;908.00;;;;;;;;;;5025386;28;20438;-63
2023/07/23 10:59:20;;;;;;;1025.93;910.13;;;;;;;;;;5006135;28;20480;-63
2023/07/23 11:01:49;;;;;;;1028.03;914.13;;;;;;;;;;5024676;28;20514;-62
2023/07/23 11:04:24;;;;;;;1025.63;911.85;;;;;;;;;;5018171;28;20430;-63
2023/07/23 11:06:55;;;;;;;1026.60;912.80;;;;;;;;;;5002611;28;21410;-62
2023/07/23 11:09:26;;;;;;;1026.40;911.22;;;;;;;;;;5015670;28;20446;-62
2023/07/23 11:11:55;;;;;;;1017.17;894.75;;;;;;;;;;5015957;28;20442;-62
2023/07/23 11:14:23;;;;;;;1008.65;880.80;;;;;;;;;;5000661;28;20584;-62
2023/07/23 11:16:52;;;;;;;1008.70;877.20;;;;;;;;;;5016157;28;20614;-62
2023/07/23 11:19:20;;;;;;;1005.40;868.33;;;;;;;;;;5018623;28;20481;-62
2023/07/23 11:21:50;;;;;;;1006.17;864.38;;;;;;;;;;5018135;28;20450;-62
2023/07/23 11:24:18;;;;;;;1006.05;867.42;;;;;;;;;;5022401;28;20450;-62
2023/07/23 11:26:46;;;;;;;1004.83;865.38;;;;;;;;;;5021383;28;20770;-62
2023/07/23 11:29:14;;;;;;;1001.25;855.08;;;;;;;;;;5020928;28;21212;-64
2023/07/23 11:31:41;;;;;;;1000.25;850.50;;;;;;;;;;5023218;28;20789;-62
2023/07/23 11:34:09;;;;;;;997.70;850.22;;;;;;;;;;5022635;28;20429;-62
2023/07/23 11:36:37;;;;;;;996.13;846.13;;;;;;;;;;5015260;28;20431;-62
2023/07/23 11:39:07;;;;;;;1000.55;851.13;;;;;;;;;;5023289;28;20431;-63
2023/07/23 11:41:35;;;;;;;997.75;842.47;;;;;;;;;;5020042;28;20454;-63
2023/07/23 11:44:05;;;;;;;997.35;843.00;;;;;;;;;;5022573;28;20540;-62
2023/07/23 11:46:33;;;;;;;999.95;846.55;;;;;;;;;;5031325;28;20429;-63
2023/07/23 11:49:02;;;;;;;1000.20;847.70;;;;;;;;;;5023480;28;20464;-64
2023/07/23 11:51:31;;;;;;;998.42;844.95;;;;;;;;;;5008209;28;20431;-64
2023/07/23 11:54:00;;;;;;;994.03;842.13;;;;;;;;;;5017870;28;20438;-63
2023/07/23 11:56:29;;;;;;;984.10;824.92;;;;;;;;;;5023296;28;20431;-63
2023/07/23 11:58:56;;;;;;;993.03;837.70;;;;;;;;;;5022859;28;20443;-62
2023/07/23 12:01:23;;;;;;;1004.17;851.78;;;;;;;;;;5022881;28;20481;-62
2023/07/23 12:03:50;;;;;;;1009.67;864.55;;;;;;;;;;5017043;28;20438;-65
2023/07/23 12:06:18;;;;;;;991.58;838.05;;;;;;;;;;5008016;28;20426;-63
2023/07/23 12:08:46;;;;;;;992.08;836.67;;;;;;;;;;5019694;28;20438;-62
2023/07/23 12:11:14;;;;;;;993.17;838.65;;;;;;;;;;5019914;28;21231;-63
2023/07/23 12:13:42;;;;;;;991.03;837.15;;;;;;;;;;5024265;28;20434;-64
2023/07/23 12:16:13;;;;;;;991.40;836.63;;;;;;;;;;5021248;28;20442;-63
2023/07/23 12:18:44;;;;;;;993.15;835.72;;;;;;;;;;5022180;28;20466;-63
2023/07/23 12:21:20;;;;;;;994.38;838.95;;;;;;;;;;5022438;28;20514;-66
2023/07/23 12:23:47;;;;;;;995.80;834.67;;;;;;;;;;5019589;28;20427;-63
2023/07/23 12:26:14;;;;;;;999.13;843.17;;;;;;;;;;5024360;28;20459;-64
2023/07/23 12:28:41;;;;;;;1003.75;842.30;;;;;;;;;;5022683;28;20437;-64
2023/07/23 12:31:11;;;;;;;1011.80;850.08;;;;;;;;;;5025982;28;20450;-63
2023/07/23 12:33:38;;;;;;;1005.08;845.28;;;;;;;;;;5024379;28;20889;-57
2023/07/23 12:36:05;;;;;;;1002.58;838.05;;;;;;;;;;5021573;28;20973;-58
2023/07/23 12:38:33;;;;;;;1001.15;842.40;;;;;;;;;;5000213;28;20942;-57
2023/07/23 12:41:04;;;;;;;1002.63;842.63;;;;;;;;;;5017702;28;20487;-58
2023/07/23 12:43:32;;;;;;;1005.17;843.65;;;;;;;;;;5026279;28;20431;-57
2023/07/23 12:46:00;;;;;;;1018.88;865.10;;;;;;;;;;5018788;28;20436;-57
2023/07/23 12:48:27;;;;;;;1015.35;864.50;;;;;;;;;;5021405;28;20514;-58
2023/07/23 12:50:54;;;;;;;1015.38;862.72;;;;;;;;;;5015485;28;20439;-57
2023/07/23 12:53:22;;;;;;;1020.35;871.05;;;;;;;;;;5020176;28;20437;-61
2023/07/23 12:55:49;;;;;;;1024.68;880.65;;;;;;;;;;5021682;28;20489;-60
2023/07/23 12:58:16;;;;;;;1028.60;888.90;;;;;;;;;;5019889;28;20443;-60
2023/07/23 13:00:43;;;;;;;1019.45;871.75;;;;;;;;;;5026304;28;20503;-61
2023/07/23 13:03:10;;;;;;;1026.50;882.95;;;;;;;;;;5016940;28;20456;-60
2023/07/23 13:05:38;;;;;;;1017.28;871.08;;;;;;;;;;5022274;28;20431;-61
2023/07/23 13:08:05;;;;;;;1015.10;859.72;;;;;;;;;;5017727;28;20523;-63
2023/07/23 13:10:32;;;;;;;1016.10;868.80;;;;;;;;;;5019271;28;20458;-61
2023/07/23 13:13:00;;;;;;;1019.42;872.67;;;;;;;;;;5016279;28;20521;-61
2023/07/23 13:15:31;;;;;;;1018.40;864.13;;;;;;;;;;5015986;28;20433;-60
2023/07/23 13:17:58;;;;;;;1012.07;862.77;;;;;;;;;;5021509;28;20438;-60
2023/07/23 13:20:26;;;;;;;1010.55;858.08;;;;;;;;;;5030593;28;20470;-60
2023/07/23 13:22:57;;;;;;;1024.57;880.30;;;;;;;;;;5017478;28;20792;-61
2023/07/23 13:25:24;;;;;;;1032.65;889.88;;;;;;;;;;5006539;28;20439;-62
2023/07/23 13:27:54;;;;;;;1036.05;900.85;;;;;;;;;;5023675;28;20521;-61
2023/07/23 13:30:21;;;;;;;1039.10;906.77;;;;;;;;;;5021550;28;20542;-61
2023/07/23 13:32:55;;;;;;;1034.90;902.35;;;;;;;;;;5024181;28;20470;-61
2023/07/23 13:35:23;;;;;;;1036.13;901.25;;;;;;;;;;5014238;28;20460;-61
2023/07/23 13:37:50;;;;;;;1035.25;899.40;;;;;;;;;;5015654;28;20523;-61
2023/07/23 13:40:17;;;;;;;1027.57;885.40;;;;;;;;;;5016753;28;20960;-61
2023/07/23 13:42:47;;;;;;;1029.90;890.67;;;;;;;;;;5017621;28;20920;-61
2023/07/23 13:45:14;;;;;;;1029.70;889.05;;;;;;;;;;5017278;28;20437;-61
2023/07/23 13:47:42;;;;;;;1033.03;898.00;;;;;;;;;;5020341;28;20426;-62
2023/07/23 13:50:09;;;;;;;1035.47;903.17;;;;;;;;;;5023546;28;20443;-62
2023/07/23 13:52:36;;;;;;;1035.90;896.53;;;;;;;;;;5017911;28;20439;-61
2023/07/23 13:55:04;;;;;;;1029.75;891.75;;;;;;;;;;5018688;28;20716;-61
2023/07/23 13:57:31;;;;;;;1014.78;869.50;;;;;;;;;;5022923;28;20442;-61